sensor_id;sensor_type;location;lat;lon;timestamp;temperature;humidity
13436;DHT22;6790;49.520;8.504;2023-03-21T00:01:12;8.30;99.90
13436;DHT22;6790;49.520;8.504;2023-03-21T00:03:39;8.30;99.90
13436;DHT22;6790;49.520;8.504;2023-03-21T00:06:10;8.30;99.90
13436;DHT22;6790;49.520;8.504;2023-03-21T00:08:37;8.30;99.90
13436;DHT22;6790;49.520;8.504;2023-03-21T00:11:06;8.30;99.90
13436;DHT22;6790;49.520;8.504;2023-03-21T00:13:33;8.30;99.90
13436;DHT22;6790;49.520;8.504;2023-03-21T00:16:14;8.30;99.90
13436;DHT22;6790;49.520;8.504;2023-03-21T00:18:45;8.30;99.90
13436;DHT22;6790;49.520;8.504;2023-03-21T00:21:17;8.40;99.90
13436;DHT22;6790;49.520;8.504;2023-03-21T00:23:45;8.30;99.90
13436;DHT22;6790;49.520;8.504;2023-03-21T00:26:12;8.30;99.90
13436;DHT22;6790;49.520;8.504;2023-03-21T00:28:40;8.40;99.90
13436;DHT22;6790;49.520;8.504;2023-03-21T00:31:07;8.40;99.90
13436;DHT22;6790;49.520;8.504;2023-03-21T00:33:33;8.40;99.90
13436;DHT22;6790;49.520;8.504;2023-03-21T00:36:00;8.40;99.90
13436;DHT22;6790;49.520;8.504;2023-03-21T00:38:26;8.30;99.90
13436;DHT22;6790;49.520;8.504;2023-03-21T00:40:52;8.30;99.90
13436;DHT22;6790;49.520;8.504;2023-03-21T00:43:18;8.30;99.90
13436;DHT22;6790;49.520;8.504;2023-03-21T00:45:48;8.30;99.90
13436;DHT22;6790;49.520;8.504;2023-03-21T00:48:16;8.20;99.90
13436;DHT22;6790;49.520;8.504;2023-03-21T00:50:44;8.20;99.90
13436;DHT22;6790;49.520;8.504;2023-03-21T00:53:11;8.20;99.90
13436;DHT22;6790;49.520;8.504;2023-03-21T00:55:38;8.10;99.90
13436;DHT22;6790;49.520;8.504;2023-03-21T00:58:05;8.20;99.90
13436;DHT22;6790;49.520;8.504;2023-03-21T01:00:31;8.10;99.90
13436;DHT22;6790;49.520;8.504;2023-03-21T01:02:58;8.10;99.90
13436;DHT22;6790;49.520;8.504;2023-03-21T01:05:32;8.20;99.90
13436;DHT22;6790;49.520;8.504;2023-03-21T01:08:18;8.20;99.90
13436;DHT22;6790;49.520;8.504;2023-03-21T01:10:46;8.30;99.90
13436;DHT22;6790;49.520;8.504;2023-03-21T01:13:14;8.30;99.90
13436;DHT22;6790;49.520;8.504;2023-03-21T01:15:53;8.30;99.90
13436;DHT22;6790;49.520;8.504;2023-03-21T01:18:22;8.30;99.90
13436;DHT22;6790;49.520;8.504;2023-03-21T01:20:51;8.30;99.90
13436;DHT22;6790;49.520;8.504;2023-03-21T01:23:18;8.30;99.90
13436;DHT22;6790;49.520;8.504;2023-03-21T01:25:43;8.30;99.90
13436;DHT22;6790;49.520;8.504;2023-03-21T01:28:11;8.30;99.90
13436;DHT22;6790;49.520;8.504;2023-03-21T01:30:37;8.30;99.90
13436;DHT22;6790;49.520;8.504;2023-03-21T01:33:03;8.30;99.90
13436;DHT22;6790;49.520;8.504;2023-03-21T01:35:29;8.30;99.90
13436;DHT22;6790;49.520;8.504;2023-03-21T01:37:54;8.30;99.90
13436;DHT22;6790;49.520;8.504;2023-03-21T01:40:23;8.30;99.90
13436;DHT22;6790;49.520;8.504;2023-03-21T01:42:50;8.30;99.90
13436;DHT22;6790;49.520;8.504;2023-03-21T01:48:32;8.30;99.90
13436;DHT22;6790;49.520;8.504;2023-03-21T01:50:59;8.20;99.90
13436;DHT22;6790;49.520;8.504;2023-03-21T01:53:27;8.30;99.90
13436;DHT22;6790;49.520;8.504;2023-03-21T01:55:56;8.30;99.90
13436;DHT22;6790;49.520;8.504;2023-03-21T01:58:24;8.30;99.90
13436;DHT22;6790;49.520;8.504;2023-03-21T02:00:51;8.30;99.90
13436;DHT22;6790;49.520;8.504;2023-03-21T02:03:18;8.30;99.90
13436;DHT22;6790;49.520;8.504;2023-03-21T02:05:59;8.30;99.90
13436;DHT22;6790;49.520;8.504;2023-03-21T02:08:28;8.30;99.90
13436;DHT22;6790;49.520;8.504;2023-03-21T02:10:56;8.30;99.90
13436;DHT22;6790;49.520;8.504;2023-03-21T02:13:22;8.30;99.90
13436;DHT22;6790;49.520;8.504;2023-03-21T02:16:20;8.30;99.90
13436;DHT22;6790;49.520;8.504;2023-03-21T02:40:10;8.20;99.90
13436;DHT22;6790;49.520;8.504;2023-03-21T02:42:47;8.10;99.90
13436;DHT22;6790;49.520;8.504;2023-03-21T02:45:24;8.10;99.90
13436;DHT22;6790;49.520;8.504;2023-03-21T02:48:09;8.10;99.90
13436;DHT22;6790;49.520;8.504;2023-03-21T02:50:52;8.10;99.90
13436;DHT22;6790;49.520;8.504;2023-03-21T02:53:20;8.10;99.90
13436;DHT22;6790;49.520;8.504;2023-03-21T02:55:48;8.10;99.90
13436;DHT22;6790;49.520;8.504;2023-03-21T02:58:18;8.10;99.90
13436;DHT22;6790;49.520;8.504;2023-03-21T03:00:46;8.00;99.90
13436;DHT22;6790;49.520;8.504;2023-03-21T03:03:13;8.10;99.90
13436;DHT22;6790;49.520;8.504;2023-03-21T03:05:47;8.10;99.90
13436;DHT22;6790;49.520;8.504;2023-03-21T03:08:37;8.10;99.90
13436;DHT22;6790;49.520;8.504;2023-03-21T03:11:37;8.10;99.90
13436;DHT22;6790;49.520;8.504;2023-03-21T03:14:16;8.10;99.90
13436;DHT22;6790;49.520;8.504;2023-03-21T03:17:50;8.00;99.90
13436;DHT22;6790;49.520;8.504;2023-03-21T03:20:24;8.00;99.90
13436;DHT22;6790;49.520;8.504;2023-03-21T03:23:20;7.90;99.90
13436;DHT22;6790;49.520;8.504;2023-03-21T03:25:57;7.90;99.90
13436;DHT22;6790;49.520;8.504;2023-03-21T03:28:32;7.90;99.90
13436;DHT22;6790;49.520;8.504;2023-03-21T03:31:02;7.90;99.90
13436;DHT22;6790;49.520;8.504;2023-03-21T03:33:28;7.90;99.90
13436;DHT22;6790;49.520;8.504;2023-03-21T03:35:56;7.90;99.90
13436;DHT22;6790;49.520;8.504;2023-03-21T03:38:24;7.90;99.90
13436;DHT22;6790;49.520;8.504;2023-03-21T03:40:55;7.90;99.90
13436;DHT22;6790;49.520;8.504;2023-03-21T03:43:34;7.90;99.90
13436;DHT22;6790;49.520;8.504;2023-03-21T03:46:31;7.90;99.90
13436;DHT22;6790;49.520;8.504;2023-03-21T03:49:22;7.90;99.90
13436;DHT22;6790;49.520;8.504;2023-03-21T03:52:07;7.90;99.90
13436;DHT22;6790;49.520;8.504;2023-03-21T03:54:43;7.90;99.90
13436;DHT22;6790;49.520;8.504;2023-03-21T03:57:11;8.00;99.90
13436;DHT22;6790;49.520;8.504;2023-03-21T03:59:40;8.00;99.90
13436;DHT22;6790;49.520;8.504;2023-03-21T04:02:07;8.00;99.90
13436;DHT22;6790;49.520;8.504;2023-03-21T04:04:33;8.10;99.90
13436;DHT22;6790;49.520;8.504;2023-03-21T04:07:01;8.10;99.90
13436;DHT22;6790;49.520;8.504;2023-03-21T04:09:28;8.10;99.90
13436;DHT22;6790;49.520;8.504;2023-03-21T04:11:55;8.00;99.90
13436;DHT22;6790;49.520;8.504;2023-03-21T04:14:22;7.90;99.90
13436;DHT22;6790;49.520;8.504;2023-03-21T04:16:48;7.80;99.90
13436;DHT22;6790;49.520;8.504;2023-03-21T04:19:15;7.80;99.90
13436;DHT22;6790;49.520;8.504;2023-03-21T04:21:41;7.80;99.90
13436;DHT22;6790;49.520;8.504;2023-03-21T04:24:07;7.80;99.90
13436;DHT22;6790;49.520;8.504;2023-03-21T04:26:34;7.80;99.90
13436;DHT22;6790;49.520;8.504;2023-03-21T04:29:00;7.90;99.90
13436;DHT22;6790;49.520;8.504;2023-03-21T04:31:28;7.90;99.90
13436;DHT22;6790;49.520;8.504;2023-03-21T04:34:00;7.90;99.90
13436;DHT22;6790;49.520;8.504;2023-03-21T04:36:27;8.00;99.90
13436;DHT22;6790;49.520;8.504;2023-03-21T04:39:03;8.00;99.90
13436;DHT22;6790;49.520;8.504;2023-03-21T04:41:36;8.00;99.90
13436;DHT22;6790;49.520;8.504;2023-03-21T04:44:06;7.90;99.90
13436;DHT22;6790;49.520;8.504;2023-03-21T04:46:33;7.90;99.90
13436;DHT22;6790;49.520;8.504;2023-03-21T04:49:00;7.90;99.90
13436;DHT22;6790;49.520;8.504;2023-03-21T04:51:26;7.80;99.90
13436;DHT22;6790;49.520;8.504;2023-03-21T04:53:51;7.80;99.90
13436;DHT22;6790;49.520;8.504;2023-03-21T04:56:22;7.70;99.90
13436;DHT22;6790;49.520;8.504;2023-03-21T04:59:04;7.70;99.90
13436;DHT22;6790;49.520;8.504;2023-03-21T05:01:32;7.70;99.90
13436;DHT22;6790;49.520;8.504;2023-03-21T05:03:59;7.70;99.90
13436;DHT22;6790;49.520;8.504;2023-03-21T05:06:26;7.60;99.90
13436;DHT22;6790;49.520;8.504;2023-03-21T05:08:53;7.70;99.90
13436;DHT22;6790;49.520;8.504;2023-03-21T05:11:41;7.60;99.90
13436;DHT22;6790;49.520;8.504;2023-03-21T05:14:13;7.60;99.90
13436;DHT22;6790;49.520;8.504;2023-03-21T05:16:43;7.50;99.90
13436;DHT22;6790;49.520;8.504;2023-03-21T05:19:10;7.50;99.90
13436;DHT22;6790;49.520;8.504;2023-03-21T05:21:38;7.50;99.90
13436;DHT22;6790;49.520;8.504;2023-03-21T05:24:10;7.50;99.90
13436;DHT22;6790;49.520;8.504;2023-03-21T05:26:39;7.50;99.90
13436;DHT22;6790;49.520;8.504;2023-03-21T05:29:06;7.50;99.90
13436;DHT22;6790;49.520;8.504;2023-03-21T05:31:32;7.50;99.90
13436;DHT22;6790;49.520;8.504;2023-03-21T05:33:58;7.50;99.90
13436;DHT22;6790;49.520;8.504;2023-03-21T05:36:24;7.40;99.90
13436;DHT22;6790;49.520;8.504;2023-03-21T05:38:50;7.40;99.90
13436;DHT22;6790;49.520;8.504;2023-03-21T05:41:16;7.30;99.90
13436;DHT22;6790;49.520;8.504;2023-03-21T05:43:43;7.20;99.90
13436;DHT22;6790;49.520;8.504;2023-03-21T05:46:09;7.10;99.90
13436;DHT22;6790;49.520;8.504;2023-03-21T05:48:36;7.10;99.90
13436;DHT22;6790;49.520;8.504;2023-03-21T05:51:03;7.00;99.90
13436;DHT22;6790;49.520;8.504;2023-03-21T05:53:29;7.00;99.90
13436;DHT22;6790;49.520;8.504;2023-03-21T05:55:55;6.90;99.90
13436;DHT22;6790;49.520;8.504;2023-03-21T05:58:20;6.90;99.90
13436;DHT22;6790;49.520;8.504;2023-03-21T06:00:46;6.90;99.90
13436;DHT22;6790;49.520;8.504;2023-03-21T06:03:12;7.00;99.90
13436;DHT22;6790;49.520;8.504;2023-03-21T06:05:37;7.20;99.90
13436;DHT22;6790;49.520;8.504;2023-03-21T06:08:03;7.40;99.90
13436;DHT22;6790;49.520;8.504;2023-03-21T06:10:29;7.60;99.90
13436;DHT22;6790;49.520;8.504;2023-03-21T06:12:55;7.80;99.90
13436;DHT22;6790;49.520;8.504;2023-03-21T06:15:20;8.00;99.90
13436;DHT22;6790;49.520;8.504;2023-03-21T06:17:46;8.30;99.90
13436;DHT22;6790;49.520;8.504;2023-03-21T06:20:12;8.50;99.90
13436;DHT22;6790;49.520;8.504;2023-03-21T06:22:38;8.60;99.90
13436;DHT22;6790;49.520;8.504;2023-03-21T06:25:04;8.80;99.90
13436;DHT22;6790;49.520;8.504;2023-03-21T06:27:33;8.90;99.90
13436;DHT22;6790;49.520;8.504;2023-03-21T06:29:59;9.00;99.90
13436;DHT22;6790;49.520;8.504;2023-03-21T06:32:25;9.10;99.90
13436;DHT22;6790;49.520;8.504;2023-03-21T06:34:51;9.20;99.90
13436;DHT22;6790;49.520;8.504;2023-03-21T06:37:18;9.30;99.90
13436;DHT22;6790;49.520;8.504;2023-03-21T06:39:44;9.30;99.90
13436;DHT22;6790;49.520;8.504;2023-03-21T06:42:11;9.30;99.90
13436;DHT22;6790;49.520;8.504;2023-03-21T06:44:38;9.30;99.90
13436;DHT22;6790;49.520;8.504;2023-03-21T06:47:04;9.30;99.90
13436;DHT22;6790;49.520;8.504;2023-03-21T06:49:30;9.40;99.90
13436;DHT22;6790;49.520;8.504;2023-03-21T06:51:56;9.40;99.90
13436;DHT22;6790;49.520;8.504;2023-03-21T06:54:22;9.50;99.90
13436;DHT22;6790;49.520;8.504;2023-03-21T06:56:47;9.50;99.90
13436;DHT22;6790;49.520;8.504;2023-03-21T06:59:13;9.50;99.90
13436;DHT22;6790;49.520;8.504;2023-03-21T07:01:40;9.60;99.90
13436;DHT22;6790;49.520;8.504;2023-03-21T07:04:07;9.60;99.90
13436;DHT22;6790;49.520;8.504;2023-03-21T07:06:33;9.80;99.90
13436;DHT22;6790;49.520;8.504;2023-03-21T07:09:00;9.90;99.90
13436;DHT22;6790;49.520;8.504;2023-03-21T07:11:26;10.10;99.90
13436;DHT22;6790;49.520;8.504;2023-03-21T07:13:52;10.30;99.90
13436;DHT22;6790;49.520;8.504;2023-03-21T07:16:18;10.60;99.90
13436;DHT22;6790;49.520;8.504;2023-03-21T07:18:46;10.70;99.90
13436;DHT22;6790;49.520;8.504;2023-03-21T07:21:12;10.70;99.90
13436;DHT22;6790;49.520;8.504;2023-03-21T07:23:39;10.70;99.90
13436;DHT22;6790;49.520;8.504;2023-03-21T07:26:05;10.80;99.90
13436;DHT22;6790;49.520;8.504;2023-03-21T07:28:31;10.90;99.90
13436;DHT22;6790;49.520;8.504;2023-03-21T07:31:00;10.80;99.90
13436;DHT22;6790;49.520;8.504;2023-03-21T07:33:31;10.90;99.90
13436;DHT22;6790;49.520;8.504;2023-03-21T07:35:58;11.10;99.90
13436;DHT22;6790;49.520;8.504;2023-03-21T07:38:25;11.30;99.90
13436;DHT22;6790;49.520;8.504;2023-03-21T07:40:52;11.30;99.90
13436;DHT22;6790;49.520;8.504;2023-03-21T07:43:18;11.40;99.90
13436;DHT22;6790;49.520;8.504;2023-03-21T07:45:44;11.40;99.90
13436;DHT22;6790;49.520;8.504;2023-03-21T07:48:11;11.50;99.90
13436;DHT22;6790;49.520;8.504;2023-03-21T07:50:38;11.60;99.90
13436;DHT22;6790;49.520;8.504;2023-03-21T07:53:04;11.70;99.90
13436;DHT22;6790;49.520;8.504;2023-03-21T07:55:30;11.80;99.90
13436;DHT22;6790;49.520;8.504;2023-03-21T07:58:02;12.00;99.90
13436;DHT22;6790;49.520;8.504;2023-03-21T08:00:28;12.20;99.90
13436;DHT22;6790;49.520;8.504;2023-03-21T08:02:55;12.20;99.90
13436;DHT22;6790;49.520;8.504;2023-03-21T08:05:23;12.10;99.90
13436;DHT22;6790;49.520;8.504;2023-03-21T08:07:51;12.30;99.90
13436;DHT22;6790;49.520;8.504;2023-03-21T08:10:18;12.40;99.90
13436;DHT22;6790;49.520;8.504;2023-03-21T08:12:44;12.40;99.90
13436;DHT22;6790;49.520;8.504;2023-03-21T08:15:11;12.50;99.90
13436;DHT22;6790;49.520;8.504;2023-03-21T08:17:39;12.40;99.90
13436;DHT22;6790;49.520;8.504;2023-03-21T08:20:07;12.40;99.90
13436;DHT22;6790;49.520;8.504;2023-03-21T08:22:35;12.50;99.90
13436;DHT22;6790;49.520;8.504;2023-03-21T08:25:02;12.50;99.90
13436;DHT22;6790;49.520;8.504;2023-03-21T08:27:30;12.60;99.90
13436;DHT22;6790;49.520;8.504;2023-03-21T08:29:57;12.80;99.90
13436;DHT22;6790;49.520;8.504;2023-03-21T08:32:24;13.00;99.90
13436;DHT22;6790;49.520;8.504;2023-03-21T08:34:57;13.20;99.90
13436;DHT22;6790;49.520;8.504;2023-03-21T08:37:24;13.20;99.90
13436;DHT22;6790;49.520;8.504;2023-03-21T08:39:50;13.40;99.90
13436;DHT22;6790;49.520;8.504;2023-03-21T08:42:16;13.50;99.90
13436;DHT22;6790;49.520;8.504;2023-03-21T08:44:42;13.30;99.90
13436;DHT22;6790;49.520;8.504;2023-03-21T08:47:08;13.30;99.90
13436;DHT22;6790;49.520;8.504;2023-03-21T08:49:34;13.50;99.90
13436;DHT22;6790;49.520;8.504;2023-03-21T08:52:00;13.60;99.90
13436;DHT22;6790;49.520;8.504;2023-03-21T08:54:26;13.80;99.90
13436;DHT22;6790;49.520;8.504;2023-03-21T08:56:52;13.70;99.90
13436;DHT22;6790;49.520;8.504;2023-03-21T08:59:18;13.80;99.90
13436;DHT22;6790;49.520;8.504;2023-03-21T09:01:43;13.90;99.90
13436;DHT22;6790;49.520;8.504;2023-03-21T09:04:09;13.70;99.90
13436;DHT22;6790;49.520;8.504;2023-03-21T09:06:39;13.70;99.90
13436;DHT22;6790;49.520;8.504;2023-03-21T09:09:05;13.60;99.90
13436;DHT22;6790;49.520;8.504;2023-03-21T09:11:34;13.70;99.90
13436;DHT22;6790;49.520;8.504;2023-03-21T09:14:00;13.90;99.90
13436;DHT22;6790;49.520;8.504;2023-03-21T09:16:26;14.00;99.90
13436;DHT22;6790;49.520;8.504;2023-03-21T09:18:52;13.80;99.90
13436;DHT22;6790;49.520;8.504;2023-03-21T09:21:21;13.70;99.90
13436;DHT22;6790;49.520;8.504;2023-03-21T09:23:49;13.90;99.90
13436;DHT22;6790;49.520;8.504;2023-03-21T09:26:18;14.00;99.90
13436;DHT22;6790;49.520;8.504;2023-03-21T09:28:44;13.90;99.90
13436;DHT22;6790;49.520;8.504;2023-03-21T09:31:14;13.90;99.90
13436;DHT22;6790;49.520;8.504;2023-03-21T09:33:41;13.80;99.90
13436;DHT22;6790;49.520;8.504;2023-03-21T09:36:09;13.90;99.90
13436;DHT22;6790;49.520;8.504;2023-03-21T09:38:42;14.10;99.90
13436;DHT22;6790;49.520;8.504;2023-03-21T09:44:52;14.20;99.90
13436;DHT22;6790;49.520;8.504;2023-03-21T09:47:42;14.00;99.90
13436;DHT22;6790;49.520;8.504;2023-03-21T09:53:16;14.10;99.90
13436;DHT22;6790;49.520;8.504;2023-03-21T09:55:48;14.10;99.90
13436;DHT22;6790;49.520;8.504;2023-03-21T09:58:40;14.10;99.90
13436;DHT22;6790;49.520;8.504;2023-03-21T10:01:17;14.00;99.90
13436;DHT22;6790;49.520;8.504;2023-03-21T10:03:51;14.30;99.90
13436;DHT22;6790;49.520;8.504;2023-03-21T10:06:19;14.60;99.90
13436;DHT22;6790;49.520;8.504;2023-03-21T10:09:00;14.60;99.90
13436;DHT22;6790;49.520;8.504;2023-03-21T10:11:43;14.80;99.90
13436;DHT22;6790;49.520;8.504;2023-03-21T10:14:15;14.70;99.90
13436;DHT22;6790;49.520;8.504;2023-03-21T10:16:47;14.80;99.90
13436;DHT22;6790;49.520;8.504;2023-03-21T10:19:16;14.50;99.90
13436;DHT22;6790;49.520;8.504;2023-03-21T10:21:46;14.60;99.90
13436;DHT22;6790;49.520;8.504;2023-03-21T10:24:21;14.10;99.90
13436;DHT22;6790;49.520;8.504;2023-03-21T10:26:50;14.20;99.90
13436;DHT22;6790;49.520;8.504;2023-03-21T10:29:17;14.30;99.90
13436;DHT22;6790;49.520;8.504;2023-03-21T10:31:47;14.50;99.90
13436;DHT22;6790;49.520;8.504;2023-03-21T10:34:35;14.40;99.90
13436;DHT22;6790;49.520;8.504;2023-03-21T10:37:05;14.50;99.90
13436;DHT22;6790;49.520;8.504;2023-03-21T10:39:32;14.30;99.90
13436;DHT22;6790;49.520;8.504;2023-03-21T10:42:00;14.20;99.90
13436;DHT22;6790;49.520;8.504;2023-03-21T10:44:33;14.20;99.90
13436;DHT22;6790;49.520;8.504;2023-03-21T10:47:06;14.40;99.90
13436;DHT22;6790;49.520;8.504;2023-03-21T10:49:35;14.30;99.90
13436;DHT22;6790;49.520;8.504;2023-03-21T10:52:04;14.30;99.90
13436;DHT22;6790;49.520;8.504;2023-03-21T10:54:34;14.30;99.90
13436;DHT22;6790;49.520;8.504;2023-03-21T10:57:12;14.50;99.90
13436;DHT22;6790;49.520;8.504;2023-03-21T10:59:52;14.40;99.90
13436;DHT22;6790;49.520;8.504;2023-03-21T11:02:33;14.30;99.90
13436;DHT22;6790;49.520;8.504;2023-03-21T11:08:09;14.00;99.90
13436;DHT22;6790;49.520;8.504;2023-03-21T11:10:59;14.00;99.90
13436;DHT22;6790;49.520;8.504;2023-03-21T11:13:35;14.10;99.90
13436;DHT22;6790;49.520;8.504;2023-03-21T11:19:17;14.00;99.90
13436;DHT22;6790;49.520;8.504;2023-03-21T11:21:44;13.90;99.90
13436;DHT22;6790;49.520;8.504;2023-03-21T11:24:15;14.00;99.90
13436;DHT22;6790;49.520;8.504;2023-03-21T11:26:44;14.10;99.90
13436;DHT22;6790;49.520;8.504;2023-03-21T11:29:26;13.80;99.90
13436;DHT22;6790;49.520;8.504;2023-03-21T11:32:00;13.90;99.90
13436;DHT22;6790;49.520;8.504;2023-03-21T11:34:46;13.90;99.90
13436;DHT22;6790;49.520;8.504;2023-03-21T11:40:05;13.80;99.90
13436;DHT22;6790;49.520;8.504;2023-03-21T11:42:58;13.70;99.90
13436;DHT22;6790;49.520;8.504;2023-03-21T11:45:34;13.90;99.90
13436;DHT22;6790;49.520;8.504;2023-03-21T11:48:06;14.10;99.90
13436;DHT22;6790;49.520;8.504;2023-03-21T11:50:40;14.20;99.90
13436;DHT22;6790;49.520;8.504;2023-03-21T12:02:06;14.30;99.90
13436;DHT22;6790;49.520;8.504;2023-03-21T12:05:01;14.60;99.90
13436;DHT22;6790;49.520;8.504;2023-03-21T12:11:02;14.50;99.90
13436;DHT22;6790;49.520;8.504;2023-03-21T12:25:14;15.10;99.90
13436;DHT22;6790;49.520;8.504;2023-03-21T12:30:55;15.10;99.90
13436;DHT22;6790;49.520;8.504;2023-03-21T12:33:41;15.40;99.90
13436;DHT22;6790;49.520;8.504;2023-03-21T12:39:34;15.50;99.90
13436;DHT22;6790;49.520;8.504;2023-03-21T12:44:38;15.30;99.90
13436;DHT22;6790;49.520;8.504;2023-03-21T12:47:25;15.60;99.90
13436;DHT22;6790;49.520;8.504;2023-03-21T12:50:03;15.70;99.90
13436;DHT22;6790;49.520;8.504;2023-03-21T12:52:51;15.60;99.90
13436;DHT22;6790;49.520;8.504;2023-03-21T12:55:28;15.40;99.90
13436;DHT22;6790;49.520;8.504;2023-03-21T12:58:08;15.30;99.90
13436;DHT22;6790;49.520;8.504;2023-03-21T13:00:43;15.50;99.90
13436;DHT22;6790;49.520;8.504;2023-03-21T13:03:14;15.50;99.90
13436;DHT22;6790;49.520;8.504;2023-03-21T13:06:02;15.60;99.30
13436;DHT22;6790;49.520;8.504;2023-03-21T13:08:42;15.70;99.90
13436;DHT22;6790;49.520;8.504;2023-03-21T13:11:20;15.40;99.80
13436;DHT22;6790;49.520;8.504;2023-03-21T13:14:07;15.20;99.30
13436;DHT22;6790;49.520;8.504;2023-03-21T13:16:50;15.10;99.00
13436;DHT22;6790;49.520;8.504;2023-03-21T13:19:45;15.10;99.90
13436;DHT22;6790;49.520;8.504;2023-03-21T13:22:25;15.10;99.90
13436;DHT22;6790;49.520;8.504;2023-03-21T13:25:06;15.10;99.90
13436;DHT22;6790;49.520;8.504;2023-03-21T13:27:41;15.10;99.40
13436;DHT22;6790;49.520;8.504;2023-03-21T13:32:47;14.90;99.90
13436;DHT22;6790;49.520;8.504;2023-03-21T13:35:21;14.90;99.90
13436;DHT22;6790;49.520;8.504;2023-03-21T13:37:58;14.80;98.90
13436;DHT22;6790;49.520;8.504;2023-03-21T13:40:43;14.80;99.90
13436;DHT22;6790;49.520;8.504;2023-03-21T13:46:22;14.90;99.70
13436;DHT22;6790;49.520;8.504;2023-03-21T13:54:03;14.70;99.90
13436;DHT22;6790;49.520;8.504;2023-03-21T14:02:31;14.30;99.90
13436;DHT22;6790;49.520;8.504;2023-03-21T14:05:06;14.20;99.90
13436;DHT22;6790;49.520;8.504;2023-03-21T14:07:43;13.90;99.90
13436;DHT22;6790;49.520;8.504;2023-03-21T14:10:32;13.60;99.90
13436;DHT22;6790;49.520;8.504;2023-03-21T14:13:04;13.40;99.90
13436;DHT22;6790;49.520;8.504;2023-03-21T14:15:42;13.20;99.90
13436;DHT22;6790;49.520;8.504;2023-03-21T14:18:19;13.00;99.90
13436;DHT22;6790;49.520;8.504;2023-03-21T14:20:52;13.00;99.90
13436;DHT22;6790;49.520;8.504;2023-03-21T14:23:19;12.90;99.90
13436;DHT22;6790;49.520;8.504;2023-03-21T14:25:45;12.90;99.90
13436;DHT22;6790;49.520;8.504;2023-03-21T14:28:19;12.90;99.90
13436;DHT22;6790;49.520;8.504;2023-03-21T14:30:58;12.90;99.90
13436;DHT22;6790;49.520;8.504;2023-03-21T14:36:05;12.90;99.90
13436;DHT22;6790;49.520;8.504;2023-03-21T14:38:36;12.70;99.90
13436;DHT22;6790;49.520;8.504;2023-03-21T14:41:03;12.60;99.90
13436;DHT22;6790;49.520;8.504;2023-03-21T14:43:30;12.70;99.90
13436;DHT22;6790;49.520;8.504;2023-03-21T14:45:59;12.60;99.90
13436;DHT22;6790;49.520;8.504;2023-03-21T14:48:33;12.60;99.90
13436;DHT22;6790;49.520;8.504;2023-03-21T14:51:05;12.60;99.90
13436;DHT22;6790;49.520;8.504;2023-03-21T14:53:40;12.40;99.90
13436;DHT22;6790;49.520;8.504;2023-03-21T14:56:23;12.40;99.90
13436;DHT22;6790;49.520;8.504;2023-03-21T14:58:51;12.60;99.90
13436;DHT22;6790;49.520;8.504;2023-03-21T15:01:30;12.60;99.90
13436;DHT22;6790;49.520;8.504;2023-03-21T15:04:00;12.60;99.90
13436;DHT22;6790;49.520;8.504;2023-03-21T15:06:29;12.70;99.90
13436;DHT22;6790;49.520;8.504;2023-03-21T15:09:01;12.70;99.90
13436;DHT22;6790;49.520;8.504;2023-03-21T15:11:38;12.60;99.90
13436;DHT22;6790;49.520;8.504;2023-03-21T15:14:10;12.50;99.90
13436;DHT22;6790;49.520;8.504;2023-03-21T15:16:37;12.50;99.90
13436;DHT22;6790;49.520;8.504;2023-03-21T15:19:04;12.40;99.90
13436;DHT22;6790;49.520;8.504;2023-03-21T15:21:38;12.40;99.90
13436;DHT22;6790;49.520;8.504;2023-03-21T15:24:11;12.40;99.90
13436;DHT22;6790;49.520;8.504;2023-03-21T15:26:44;12.30;99.90
13436;DHT22;6790;49.520;8.504;2023-03-21T15:29:12;12.20;99.90
13436;DHT22;6790;49.520;8.504;2023-03-21T15:31:40;12.20;99.90
13436;DHT22;6790;49.520;8.504;2023-03-21T15:34:06;12.20;99.90
13436;DHT22;6790;49.520;8.504;2023-03-21T15:36:45;12.20;99.90
13436;DHT22;6790;49.520;8.504;2023-03-21T15:39:14;12.20;99.90
13436;DHT22;6790;49.520;8.504;2023-03-21T15:41:54;12.20;99.90
13436;DHT22;6790;49.520;8.504;2023-03-21T15:44:32;12.20;99.90
13436;DHT22;6790;49.520;8.504;2023-03-21T15:46:58;12.20;99.90
13436;DHT22;6790;49.520;8.504;2023-03-21T15:49:33;12.10;99.90
13436;DHT22;6790;49.520;8.504;2023-03-21T15:52:12;12.10;99.90
13436;DHT22;6790;49.520;8.504;2023-03-21T15:54:45;12.10;99.90
13436;DHT22;6790;49.520;8.504;2023-03-21T15:57:24;12.10;99.90
13436;DHT22;6790;49.520;8.504;2023-03-21T16:02:44;12.20;99.90
13436;DHT22;6790;49.520;8.504;2023-03-21T16:08:18;12.30;99.90
13436;DHT22;6790;49.520;8.504;2023-03-21T16:10:46;12.30;99.90
13436;DHT22;6790;49.520;8.504;2023-03-21T16:13:13;12.30;99.90
13436;DHT22;6790;49.520;8.504;2023-03-21T16:15:39;12.30;99.90
13436;DHT22;6790;49.520;8.504;2023-03-21T16:18:05;12.30;99.90
13436;DHT22;6790;49.520;8.504;2023-03-21T16:20:38;12.20;99.90
13436;DHT22;6790;49.520;8.504;2023-03-21T16:23:05;12.20;99.90
13436;DHT22;6790;49.520;8.504;2023-03-21T16:25:32;12.30;99.90
13436;DHT22;6790;49.520;8.504;2023-03-21T16:27:58;12.30;99.90
13436;DHT22;6790;49.520;8.504;2023-03-21T16:30:24;12.40;99.90
13436;DHT22;6790;49.520;8.504;2023-03-21T16:32:50;12.20;99.90
13436;DHT22;6790;49.520;8.504;2023-03-21T16:35:16;12.30;99.90
13436;DHT22;6790;49.520;8.504;2023-03-21T16:37:43;12.30;99.90
13436;DHT22;6790;49.520;8.504;2023-03-21T16:40:26;12.30;99.90
13436;DHT22;6790;49.520;8.504;2023-03-21T16:42:54;12.30;99.90
13436;DHT22;6790;49.520;8.504;2023-03-21T16:45:20;12.20;99.90
13436;DHT22;6790;49.520;8.504;2023-03-21T16:47:47;12.10;99.90
13436;DHT22;6790;49.520;8.504;2023-03-21T16:50:34;12.20;99.90
13436;DHT22;6790;49.520;8.504;2023-03-21T16:53:02;12.10;99.90
13436;DHT22;6790;49.520;8.504;2023-03-21T16:55:28;12.10;99.90
13436;DHT22;6790;49.520;8.504;2023-03-21T16:57:57;12.10;99.90
13436;DHT22;6790;49.520;8.504;2023-03-21T17:00:25;12.00;99.90
13436;DHT22;6790;49.520;8.504;2023-03-21T17:02:53;12.10;99.90
13436;DHT22;6790;49.520;8.504;2023-03-21T17:05:21;12.00;99.90
13436;DHT22;6790;49.520;8.504;2023-03-21T17:07:50;12.00;99.90
13436;DHT22;6790;49.520;8.504;2023-03-21T17:10:24;11.90;99.90
13436;DHT22;6790;49.520;8.504;2023-03-21T17:12:51;11.90;99.90
13436;DHT22;6790;49.520;8.504;2023-03-21T17:15:18;11.80;99.90
13436;DHT22;6790;49.520;8.504;2023-03-21T17:17:44;11.80;99.90
13436;DHT22;6790;49.520;8.504;2023-03-21T17:20:20;11.80;99.90
13436;DHT22;6790;49.520;8.504;2023-03-21T17:22:47;11.70;99.90
13436;DHT22;6790;49.520;8.504;2023-03-21T17:25:14;11.60;99.90
13436;DHT22;6790;49.520;8.504;2023-03-21T17:27:41;11.60;99.90
13436;DHT22;6790;49.520;8.504;2023-03-21T17:30:25;11.50;99.90
13436;DHT22;6790;49.520;8.504;2023-03-21T17:32:56;11.50;99.90
13436;DHT22;6790;49.520;8.504;2023-03-21T17:35:23;11.40;99.90
13436;DHT22;6790;49.520;8.504;2023-03-21T17:37:49;11.30;99.90
13436;DHT22;6790;49.520;8.504;2023-03-21T17:40:21;11.30;99.90
13436;DHT22;6790;49.520;8.504;2023-03-21T17:42:49;11.20;99.90
13436;DHT22;6790;49.520;8.504;2023-03-21T17:45:16;11.20;99.90
13436;DHT22;6790;49.520;8.504;2023-03-21T17:47:42;11.20;99.90
13436;DHT22;6790;49.520;8.504;2023-03-21T17:50:20;11.10;99.90
13436;DHT22;6790;49.520;8.504;2023-03-21T17:52:48;11.10;99.90
13436;DHT22;6790;49.520;8.504;2023-03-21T17:55:15;11.00;99.90